Terminal Aerodrome Forecast
Issued by NWS Topeka, KS

Home | Current Version | Previous Version | Text Only | Print | Product List | Glossary Off
Versions: 1 2 3 4 5 6 7 8 9 10 11 12 13 14 15 16 17 18 19

485
FTUS43 KTOP 121120
TAFTOP
TAF
KTOP 121120Z 1212/1312 35008KT P6SM BKN024
     FM121700 35013G18KT P6SM SCT035
     FM122300 36010KT P6SM SCT100
     FM130300 04006KT P6SM BKN060=

USA.gov is the U.S. government's official web portal to all federal, state and local government web resources and services.